Time;durP1;ratioP1;P1;durP2;ratioP2;P2;SDS_P1;SDS_P2;PMS_P1;PMS_P2;Temp;Humidity;BMP_temperature;BMP_pressure;BME280_temperature;BME280_humidity;BME280_pressure;Samples;Min_cycle;Max_cycle;Signal;HPM_P1;HPM_P2
2022/07/13 00:00:45;0.00;0.00;0.62;0.00;0.00;0.62;1.97;1.53;;;25.50;33.90;;;;;;2229705;62;20434;-62
2022/07/13 00:03:30;0.00;0.00;0.62;0.00;0.00;0.62;2.57;2.20;;;25.40;33.90;;;;;;2230157;62;20437;-62
2022/07/13 00:06:16;0.00;0.00;0.62;0.00;0.00;0.62;3.23;2.00;;;25.40;34.00;;;;;;2232707;62;20373;-62
2022/07/13 00:09:01;0.00;0.00;0.62;0.00;0.00;0.62;3.50;2.10;;;25.30;34.20;;;;;;2229789;62;20606;-62
2022/07/13 00:11:46;0.00;0.00;0.62;0.00;0.00;0.62;5.00;2.47;;;25.30;34.30;;;;;;2229575;62;20425;-62
2022/07/13 00:14:30;0.00;0.00;0.62;0.00;0.00;0.62;3.40;2.00;;;25.20;34.30;;;;;;2229678;62;20413;-62
2022/07/13 00:17:15;0.00;0.00;0.62;0.00;0.00;0.62;3.63;1.67;;;25.20;34.50;;;;;;2230041;62;20385;-62
2022/07/13 00:20:00;0.00;0.00;0.62;0.00;0.00;0.62;2.80;1.93;;;25.10;34.50;;;;;;2229508;62;20605;-61
2022/07/13 00:22:46;0.00;0.00;0.62;0.00;0.00;0.62;2.17;1.60;;;25.10;34.50;;;;;;2229648;62;20365;-62
2022/07/13 00:25:30;0.00;0.00;0.62;0.00;0.00;0.62;2.17;1.77;;;25.10;34.70;;;;;;2230146;62;20413;-62
2022/07/13 00:28:15;0.00;0.00;0.62;0.00;0.00;0.62;3.00;1.80;;;25.00;34.70;;;;;;2230067;62;20397;-62
2022/07/13 00:31:00;0.00;0.00;0.62;0.00;0.00;0.62;1.90;1.50;;;25.00;34.80;;;;;;2229622;62;20418;-62
2022/07/13 00:33:44;0.00;0.00;0.62;0.00;0.00;0.62;2.80;1.60;;;25.00;34.90;;;;;;2229471;62;20781;-62
2022/07/13 00:36:29;0.00;0.00;0.62;0.00;0.00;0.62;3.03;1.50;;;24.90;34.90;;;;;;2231427;62;20387;-62
2022/07/13 00:39:15;0.00;0.00;0.62;0.00;0.00;0.62;2.87;1.70;;;24.90;35.10;;;;;;2230299;62;20369;-62
2022/07/13 00:42:00;0.00;0.00;0.62;0.00;0.00;0.62;2.70;1.60;;;24.80;35.20;;;;;;2229489;62;20385;-63
2022/07/13 00:44:45;0.00;0.00;0.62;0.00;0.00;0.62;1.60;1.50;;;24.80;35.30;;;;;;2229441;62;20369;-62
2022/07/13 00:47:32;0.00;0.00;0.62;0.00;0.00;0.62;4.23;1.80;;;24.70;35.30;;;;;;2230066;62;20368;-61
2022/07/13 00:50:16;0.00;0.00;0.62;0.00;0.00;0.62;1.97;1.63;;;24.70;35.50;;;;;;2229637;62;20392;-62
2022/07/13 00:53:01;0.00;0.00;0.62;0.00;0.00;0.62;2.90;1.80;;;24.70;35.50;;;;;;2229553;62;20444;-62
2022/07/13 00:55:48;0.00;0.00;0.62;0.00;0.00;0.62;2.50;1.90;;;24.70;35.60;;;;;;2229051;62;20820;-62
2022/07/13 00:58:33;0.00;0.00;0.62;0.00;0.00;0.62;2.90;1.87;;;24.60;35.70;;;;;;2229434;62;20393;-63
2022/07/13 01:01:18;0.00;0.00;0.62;0.00;0.00;0.62;2.43;1.87;;;24.60;35.70;;;;;;2230161;62;20416;-63
2022/07/13 01:04:04;0.00;0.00;0.62;0.00;0.00;0.62;1.97;1.60;;;24.60;35.90;;;;;;2229435;62;20686;-62
2022/07/13 01:06:49;0.00;0.00;0.62;0.00;0.00;0.62;4.53;1.87;;;24.60;35.90;;;;;;2229368;62;20373;-65
2022/07/13 01:09:34;0.00;0.00;0.62;0.00;0.00;0.62;3.13;2.00;;;24.60;35.90;;;;;;2230274;62;20393;-62
2022/07/13 01:12:21;0.00;0.00;0.62;0.00;0.00;0.62;2.90;2.20;;;24.60;36.00;;;;;;2229375;62;20490;-61
2022/07/13 01:15:08;0.00;0.00;0.62;0.00;0.00;0.62;2.00;1.73;;;24.60;36.00;;;;;;2229055;62;20362;-63
2022/07/13 01:17:54;0.00;0.00;0.62;0.00;0.00;0.62;5.50;1.80;;;24.50;36.00;;;;;;2226246;62;20413;-62
2022/07/13 01:20:39;0.00;0.00;0.62;0.00;0.00;0.62;2.97;2.07;;;24.50;36.00;;;;;;2229583;62;20426;-63
2022/07/13 01:23:27;0.00;0.00;0.62;0.00;0.00;0.62;2.30;1.50;;;24.50;36.10;;;;;;2230198;62;20584;-62
2022/07/13 01:26:12;0.00;0.00;0.62;0.00;0.00;0.62;2.10;1.77;;;24.50;36.20;;;;;;2228863;62;20499;-61
2022/07/13 01:28:57;0.00;0.00;0.62;0.00;0.00;0.62;2.50;1.50;;;24.50;36.20;;;;;;2228834;62;20772;-62
2022/07/13 01:31:42;0.00;0.00;0.62;0.00;0.00;0.62;2.40;1.70;;;24.50;36.40;;;;;;2227072;62;20393;-62
2022/07/13 01:34:27;0.00;0.00;0.62;0.00;0.00;0.62;1.80;1.57;;;24.50;37.10;;;;;;2228922;62;20724;-62
2022/07/13 01:37:12;0.00;0.00;0.62;0.00;0.00;0.62;3.03;1.70;;;24.50;36.50;;;;;;2229428;62;20495;-61
2022/07/13 01:39:59;0.00;0.00;0.62;0.00;0.00;0.62;2.30;1.60;;;24.50;36.50;;;;;;2229319;62;20667;-62
2022/07/13 01:42:47;0.00;0.00;0.62;0.00;0.00;0.62;4.63;2.27;;;24.40;36.40;;;;;;2229341;62;20389;-62
2022/07/13 01:45:35;0.00;0.00;0.62;0.00;0.00;0.62;3.50;1.90;;;24.50;36.60;;;;;;2229743;62;20410;-62
2022/07/13 01:48:20;0.00;0.00;0.62;0.00;0.00;0.62;3.50;2.40;;;24.50;36.60;;;;;;2228957;62;20490;-62
2022/07/13 01:51:05;0.00;0.00;0.62;0.00;0.00;0.62;3.70;2.20;;;24.50;36.60;;;;;;2228938;62;20392;-62
2022/07/13 01:53:51;0.00;0.00;0.62;0.00;0.00;0.62;3.10;1.93;;;24.50;36.60;;;;;;2229709;62;20442;-62
2022/07/13 01:56:40;0.00;0.00;0.62;0.00;0.00;0.62;2.40;1.70;;;24.50;36.70;;;;;;2229057;62;20599;-63
2022/07/13 01:59:25;0.00;0.00;0.62;0.00;0.00;0.62;2.20;1.60;;;24.50;36.70;;;;;;2229105;62;20581;-63
2022/07/13 02:02:11;0.00;0.00;0.62;0.00;0.00;0.62;3.37;2.10;;;24.50;36.70;;;;;;2228904;62;20774;-60
2022/07/13 02:04:56;0.00;0.00;0.62;0.00;0.00;0.62;3.13;2.10;;;24.60;36.70;;;;;;2229457;62;20378;-63
2022/07/13 02:07:42;0.00;0.00;0.62;0.00;0.00;0.62;3.20;1.60;;;24.60;36.60;;;;;;2229411;62;20399;-63
2022/07/13 02:10:37;0.00;0.00;0.62;0.00;0.00;0.62;3.63;1.87;;;24.70;36.60;;;;;;2228864;62;20416;-63
2022/07/13 02:13:25;0.00;0.00;0.62;0.00;0.00;0.62;2.53;1.80;;;24.70;36.50;;;;;;2229094;62;20383;-62
2022/07/13 02:16:10;0.00;0.00;0.62;0.00;0.00;0.62;2.20;1.70;;;24.80;36.50;;;;;;2229928;62;20393;-63
2022/07/13 02:18:55;0.00;0.00;0.62;0.00;0.00;0.62;2.07;1.87;;;24.80;36.50;;;;;;2228999;62;20349;-62
2022/07/13 02:21:39;0.00;0.00;0.62;0.00;0.00;0.62;1.87;1.63;;;24.90;36.50;;;;;;2229119;62;20434;-63
2022/07/13 02:24:24;0.00;0.00;0.62;0.00;0.00;0.62;2.50;1.97;;;24.90;36.40;;;;;;2229021;62;20676;-63
2022/07/13 02:27:09;0.00;0.00;0.62;0.00;0.00;0.62;2.17;1.50;;;24.90;36.30;;;;;;2229536;62;20641;-63
2022/07/13 02:29:55;0.00;0.00;0.62;0.00;0.00;0.62;2.33;1.70;;;25.00;36.30;;;;;;2229880;62;20404;-62
2022/07/13 02:32:40;0.00;0.00;0.62;0.00;0.00;0.62;2.57;1.53;;;25.00;36.20;;;;;;2228736;62;20373;-62
2022/07/13 02:35:26;0.00;0.00;0.62;0.00;0.00;0.62;2.43;1.50;;;25.00;36.20;;;;;;2229606;62;20398;-62
2022/07/13 02:38:11;0.00;0.00;0.62;0.00;0.00;0.62;2.30;1.57;;;25.10;36.20;;;;;;2229352;62;20410;-63
2022/07/13 02:40:55;0.00;0.00;0.62;0.00;0.00;0.62;2.20;1.90;;;25.10;36.10;;;;;;2229601;62;20388;-60
2022/07/13 02:43:42;0.00;0.00;0.62;0.00;0.00;0.62;1.80;1.40;;;25.10;36.00;;;;;;2228803;62;20377;-62
2022/07/13 02:46:31;0.00;0.00;0.62;0.00;0.00;0.62;2.57;1.77;;;25.10;36.00;;;;;;2226184;62;20369;-63
2022/07/13 02:49:15;0.00;0.00;0.62;0.00;0.00;0.62;2.40;1.73;;;25.20;36.00;;;;;;2226709;62;20469;-62
2022/07/13 02:52:00;0.00;0.00;0.62;0.00;0.00;0.62;2.33;1.67;;;25.20;35.90;;;;;;2229389;62;20457;-63
2022/07/13 02:54:45;0.00;0.00;0.62;0.00;0.00;0.62;2.13;1.50;;;25.20;35.90;;;;;;2229282;62;20400;-63
2022/07/13 02:57:31;0.00;0.00;0.62;0.00;0.00;0.62;3.20;1.80;;;25.30;35.90;;;;;;2228761;62;20662;-62
2022/07/13 03:00:18;0.00;0.00;0.62;0.00;0.00;0.62;1.83;1.63;;;25.30;35.80;;;;;;2229476;62;20410;-63
2022/07/13 03:03:04;0.00;0.00;0.62;0.00;0.00;0.62;1.40;1.20;;;25.30;35.80;;;;;;2228961;62;20574;-62
2022/07/13 03:05:49;0.00;0.00;0.62;0.00;0.00;0.62;2.33;1.90;;;25.40;35.80;;;;;;2228704;62;20376;-62
2022/07/13 03:08:34;0.00;0.00;0.62;0.00;0.00;0.62;2.00;1.37;;;25.40;35.80;;;;;;2229063;62;20397;-62
2022/07/13 03:11:19;0.00;0.00;0.62;0.00;0.00;0.62;2.10;1.60;;;25.40;35.70;;;;;;2229962;62;20433;-63
2022/07/13 03:14:04;0.00;0.00;0.62;0.00;0.00;0.62;2.20;1.70;;;25.40;35.70;;;;;;2229190;62;20397;-62
2022/07/13 03:16:49;0.00;0.00;0.62;0.00;0.00;0.62;2.20;1.80;;;25.40;35.70;;;;;;2228882;62;20725;-62
2022/07/13 03:19:36;0.00;0.00;0.62;0.00;0.00;0.62;2.43;2.20;;;25.40;35.70;;;;;;2228739;62;20369;-63
2022/07/13 03:22:21;0.00;0.00;0.62;0.00;0.00;0.62;3.07;1.50;;;25.40;35.70;;;;;;2229613;62;20418;-62
2022/07/13 03:25:08;0.00;0.00;0.62;0.00;0.00;0.62;3.17;2.17;;;25.40;35.70;;;;;;2229440;62;20396;-63
2022/07/13 03:27:53;0.00;0.00;0.62;0.00;0.00;0.62;2.30;1.80;;;25.40;35.60;;;;;;2229339;62;20373;-63
2022/07/13 03:30:38;0.00;0.00;0.62;0.00;0.00;0.62;1.57;1.40;;;25.50;35.70;;;;;;2230138;62;20430;-62
2022/07/13 03:33:24;0.00;0.00;0.62;0.00;0.00;0.62;3.70;1.70;;;25.40;35.60;;;;;;2230110;62;20733;-63
2022/07/13 03:36:11;0.00;0.00;0.62;0.00;0.00;0.62;2.20;1.80;;;25.50;35.70;;;;;;2229705;62;20660;-63
2022/07/13 03:38:56;0.00;0.00;0.62;0.00;0.00;0.62;2.73;1.83;;;25.50;35.70;;;;;;2229422;62;20365;-63
2022/07/13 03:41:42;0.00;0.00;0.62;0.00;0.00;0.62;2.20;1.97;;;25.50;35.70;;;;;;2229418;62;20648;-63
2022/07/13 03:44:28;0.00;0.00;0.62;0.00;0.00;0.62;2.10;1.80;;;25.50;35.70;;;;;;2230107;62;20358;-62
2022/07/13 03:47:13;0.00;0.00;0.62;0.00;0.00;0.62;2.63;1.87;;;25.50;35.70;;;;;;2229366;62;20369;-63
2022/07/13 03:49:57;0.00;0.00;0.62;0.00;0.00;0.62;2.73;1.97;;;25.50;35.70;;;;;;2229370;62;20396;-62
2022/07/13 03:52:44;0.00;0.00;0.62;0.00;0.00;0.62;2.13;1.80;;;25.50;35.60;;;;;;2230083;62;20365;-63
2022/07/13 03:55:30;0.00;0.00;0.62;0.00;0.00;0.62;3.17;1.77;;;25.50;35.60;;;;;;2229883;62;20389;-63
2022/07/13 03:58:14;0.00;0.00;0.62;0.00;0.00;0.62;4.20;1.70;;;25.60;35.60;;;;;;2229444;62;20394;-63
2022/07/13 04:01:01;0.00;0.00;0.62;0.00;0.00;0.62;3.33;2.07;;;25.60;35.60;;;;;;2229262;62;20656;-62
2022/07/13 04:03:47;0.00;0.00;0.62;0.00;0.00;0.62;2.30;1.77;;;25.50;35.50;;;;;;2229353;62;20410;-63
2022/07/13 04:06:32;0.00;0.00;0.62;0.00;0.00;0.62;2.50;1.63;;;25.60;35.60;;;;;;2230457;62;20374;-62
2022/07/13 04:09:19;0.00;0.00;0.62;0.00;0.00;0.62;2.43;2.00;;;25.60;35.60;;;;;;2229187;62;20400;-62
2022/07/13 04:12:05;0.00;0.00;0.62;0.00;0.00;0.62;3.57;1.87;;;25.60;35.60;;;;;;2229419;62;20362;-63
2022/07/13 04:14:50;0.00;0.00;0.62;0.00;0.00;0.62;1.87;1.40;;;25.60;35.60;;;;;;2229894;62;20414;-63
2022/07/13 04:17:36;0.00;0.00;0.62;0.00;0.00;0.62;1.90;1.37;;;25.70;35.60;;;;;;2229764;62;20409;-62
2022/07/13 04:20:21;0.00;0.00;0.62;0.00;0.00;0.62;3.30;1.70;;;25.70;35.50;;;;;;2229574;62;20412;-62
2022/07/13 04:23:07;0.00;0.00;0.62;0.00;0.00;0.62;3.20;1.97;;;25.70;35.50;;;;;;2229117;62;20388;-63
2022/07/13 04:25:54;0.00;0.00;0.62;0.00;0.00;0.62;2.40;1.67;;;25.70;35.50;;;;;;2229376;62;20377;-62
2022/07/13 04:28:39;0.00;0.00;0.62;0.00;0.00;0.62;5.13;1.87;;;25.70;35.50;;;;;;2229805;62;20397;-63
2022/07/13 04:31:26;0.00;0.00;0.62;0.00;0.00;0.62;2.87;2.13;;;25.70;35.50;;;;;;2229118;62;20457;-63
2022/07/13 04:34:11;0.00;0.00;0.62;0.00;0.00;0.62;2.63;1.80;;;25.70;35.60;;;;;;2229363;62;20587;-63
2022/07/13 04:36:57;0.00;0.00;0.62;0.00;0.00;0.62;3.73;1.77;;;25.70;35.60;;;;;;2229799;62;20365;-63
2022/07/13 04:39:43;0.00;0.00;0.62;0.00;0.00;0.62;6.80;2.60;;;25.70;35.60;;;;;;2229378;62;20426;-63
2022/07/13 04:42:30;0.00;0.00;0.62;0.00;0.00;0.62;4.60;2.53;;;25.70;35.60;;;;;;2229446;62;20380;-60
2022/07/13 04:45:18;0.00;0.00;0.62;0.00;0.00;0.62;3.63;2.20;;;25.70;35.60;;;;;;2229205;62;20377;-61
2022/07/13 04:48:05;0.00;0.00;0.62;0.00;0.00;0.62;3.47;2.13;;;25.70;35.60;;;;;;2229169;62;20782;-62
2022/07/13 04:50:51;0.00;0.00;0.62;0.00;0.00;0.62;4.10;2.93;;;25.80;35.70;;;;;;2229905;62;20476;-62
2022/07/13 04:53:36;0.00;0.00;0.62;0.00;0.00;0.62;3.40;1.83;;;25.80;35.70;;;;;;2229625;62;20369;-61
2022/07/13 04:56:22;0.00;0.00;0.62;0.00;0.00;0.62;2.80;2.00;;;25.80;35.70;;;;;;2229932;62;20365;-62
2022/07/13 04:59:08;0.00;0.00;0.62;0.00;0.00;0.62;3.10;1.90;;;25.80;35.60;;;;;;2229779;62;20393;-62
2022/07/13 05:01:53;0.00;0.00;0.62;0.00;0.00;0.62;3.43;2.10;;;25.80;35.60;;;;;;2229678;62;20396;-63
2022/07/13 05:04:39;0.00;0.00;0.62;0.00;0.00;0.62;2.23;1.90;;;25.80;35.60;;;;;;2229221;62;20369;-62
2022/07/13 05:07:24;0.00;0.00;0.62;0.00;0.00;0.62;4.30;2.30;;;25.80;35.50;;;;;;2229465;62;20583;-63
2022/07/13 05:10:10;0.00;0.00;0.62;0.00;0.00;0.62;8.50;2.47;;;25.90;35.60;;;;;;2229856;62;20401;-62
2022/07/13 05:12:56;0.00;0.00;0.62;0.00;0.00;0.62;3.03;1.90;;;25.90;35.50;;;;;;2229602;62;20725;-62
2022/07/13 05:15:43;0.00;0.00;0.62;0.00;0.00;0.62;3.37;1.80;;;26.00;35.50;;;;;;2229221;62;20369;-63
2022/07/13 05:18:28;0.00;0.00;0.62;0.00;0.00;0.62;3.30;2.03;;;26.00;35.50;;;;;;2229096;62;20377;-64
2022/07/13 05:21:18;0.00;0.00;0.62;0.00;0.00;0.62;6.87;2.30;;;26.00;35.50;;;;;;2229775;62;20416;-62
2022/07/13 05:24:04;0.00;0.00;0.62;0.00;0.00;0.62;4.53;2.00;;;26.00;35.40;;;;;;2226596;62;20373;-62
2022/07/13 05:26:49;0.00;0.00;0.62;0.00;0.00;0.62;9.07;2.50;;;26.00;35.40;;;;;;2226604;62;20729;-63
2022/07/13 05:29:34;0.00;0.00;0.62;0.00;0.00;0.62;5.60;2.97;;;26.10;35.40;;;;;;2228907;62;20760;-62
2022/07/13 05:32:21;0.00;0.00;0.62;0.00;0.00;0.62;5.67;3.57;;;26.10;35.30;;;;;;2229335;62;20596;-62
2022/07/13 05:35:07;0.00;0.00;0.62;0.00;0.00;0.62;7.03;3.37;;;26.20;35.40;;;;;;2229771;62;20377;-63
2022/07/13 05:37:55;0.00;0.00;0.62;0.00;0.00;0.62;4.60;2.80;;;26.20;35.30;;;;;;2228957;62;20394;-63
2022/07/13 05:40:40;0.00;0.00;0.62;0.00;0.00;0.62;9.20;2.90;;;26.20;35.20;;;;;;2229176;62;20413;-63
2022/07/13 05:43:25;0.00;0.00;0.62;0.00;0.00;0.62;7.73;3.07;;;26.20;35.20;;;;;;2229686;62;20402;-63
2022/07/13 05:46:10;0.00;0.00;0.62;0.00;0.00;0.62;5.60;3.07;;;26.20;35.30;;;;;;2228999;62;20370;-63
2022/07/13 05:48:56;0.00;0.00;0.62;0.00;0.00;0.62;5.40;2.43;;;26.30;35.30;;;;;;2229363;62;20400;-62
2022/07/13 05:51:41;0.00;0.00;0.62;0.00;0.00;0.62;5.63;2.43;;;26.30;35.20;;;;;;2229014;62;20473;-62
2022/07/13 05:54:28;0.00;0.00;0.62;0.00;0.00;0.62;4.43;2.33;;;26.30;35.20;;;;;;2229382;62;20603;-62
2022/07/13 05:57:13;0.00;0.00;0.62;0.00;0.00;0.62;2.90;2.23;;;26.40;35.20;;;;;;2230096;62;20369;-62
2022/07/13 05:59:57;0.00;0.00;0.62;0.00;0.00;0.62;2.30;2.00;;;26.30;35.20;;;;;;2229331;62;20456;-63
2022/07/13 06:02:43;0.00;0.00;0.62;0.00;0.00;0.62;6.03;1.93;;;26.40;35.20;;;;;;2229653;62;20377;-63
2022/07/13 06:05:29;0.00;0.00;0.62;0.00;0.00;0.62;3.70;2.03;;;26.40;35.20;;;;;;2230059;62;20424;-62
2022/07/13 06:08:14;0.00;0.00;0.62;0.00;0.00;0.62;2.83;2.20;;;26.40;35.20;;;;;;2226096;62;20397;-63
2022/07/13 06:10:59;0.00;0.00;0.62;0.00;0.00;0.62;2.80;2.07;;;26.40;35.30;;;;;;2229526;62;20766;-62
2022/07/13 06:13:43;0.00;0.00;0.62;0.00;0.00;0.62;2.37;1.67;;;26.40;35.30;;;;;;2229258;62;20626;-62
2022/07/13 06:16:28;0.00;0.00;0.62;0.00;0.00;0.62;3.93;1.90;;;26.40;35.30;;;;;;2229943;62;20369;-62
2022/07/13 06:19:13;0.00;0.00;0.62;0.00;0.00;0.62;3.47;2.70;;;26.40;35.90;;;;;;2229934;62;20705;-62
2022/07/13 06:21:59;0.00;0.00;0.62;0.00;0.00;0.62;3.40;2.50;;;26.50;35.30;;;;;;2229239;62;20500;-69
2022/07/13 06:24:44;0.00;0.00;0.62;0.00;0.00;0.62;3.40;2.50;;;26.50;35.20;;;;;;2229400;62;20426;-67
2022/07/13 06:27:29;0.00;0.00;0.62;0.00;0.00;0.62;4.50;2.80;;;26.50;35.20;;;;;;2229992;62;20417;-62
2022/07/13 06:30:14;0.00;0.00;0.62;0.00;0.00;0.62;2.63;2.20;;;26.60;35.20;;;;;;2229125;62;20417;-62
2022/07/13 06:32:59;0.00;0.00;0.62;0.00;0.00;0.62;3.00;2.70;;;26.60;35.10;;;;;;2228485;62;20425;-62
2022/07/13 06:35:44;0.00;0.00;0.62;0.00;0.00;0.62;3.93;2.10;;;26.60;35.00;;;;;;2229727;62;20733;-62
2022/07/13 06:38:30;0.00;0.00;0.62;0.00;0.00;0.62;3.40;2.20;;;26.60;35.00;;;;;;2229763;62;20398;-61
2022/07/13 06:41:14;0.00;0.00;0.62;0.00;0.00;0.62;3.40;2.43;;;26.70;35.00;;;;;;2250054;62;20821;-67
2022/07/13 06:43:59;0.00;0.00;0.62;0.00;0.00;0.62;2.67;2.20;;;26.70;34.80;;;;;;2229073;62;20736;-62
2022/07/13 06:46:44;0.00;0.00;0.62;0.00;0.00;0.62;5.53;1.93;;;26.70;34.70;;;;;;2228882;62;20410;-61
2022/07/13 06:49:28;0.00;0.00;0.62;0.00;0.00;0.62;2.60;2.10;;;26.80;34.80;;;;;;2229824;62;20393;-66
2022/07/13 06:52:13;0.00;0.00;0.62;0.00;0.00;0.62;3.73;1.97;;;26.80;34.70;;;;;;2229114;62;20361;-64
2022/07/13 06:55:00;0.00;0.00;0.62;0.00;0.00;0.62;4.00;2.00;;;26.80;34.60;;;;;;2229226;62;20418;-64
2022/07/13 06:57:45;0.00;0.00;0.62;0.00;0.00;0.62;4.00;2.10;;;26.90;34.60;;;;;;2230171;62;20380;-66
2022/07/13 07:00:30;0.00;0.00;0.62;0.00;0.00;0.62;5.10;2.07;;;26.90;34.30;;;;;;2230640;62;20389;-64
2022/07/13 07:03:15;0.00;0.00;0.62;0.00;0.00;0.62;2.50;2.00;;;27.00;34.30;;;;;;2230224;62;20637;-62
2022/07/13 07:05:59;0.00;0.00;0.62;0.00;0.00;0.62;6.40;2.20;;;27.00;34.20;;;;;;2230003;62;20650;-66
2022/07/13 07:08:45;0.00;0.00;0.62;0.00;0.00;0.62;5.20;2.23;;;27.00;33.80;;;;;;2229917;62;20384;-67
2022/07/13 07:11:31;0.00;0.00;0.62;0.00;0.00;0.62;2.97;2.17;;;27.10;33.60;;;;;;2230575;62;20433;-65
2022/07/13 07:14:16;0.00;0.00;0.62;0.00;0.00;0.62;2.77;2.10;;;27.10;33.50;;;;;;2230015;62;20621;-66
2022/07/13 07:17:03;0.00;0.00;0.62;0.00;0.00;0.62;3.07;2.07;;;27.10;33.30;;;;;;2230145;62;20369;-63
2022/07/13 07:19:48;0.00;0.00;0.62;0.00;0.00;0.62;2.50;2.00;;;27.20;33.40;;;;;;2230567;62;20433;-66
2022/07/13 07:22:32;0.00;0.00;0.62;0.00;0.00;0.62;2.20;1.80;;;27.20;33.40;;;;;;2230160;62;20365;-63
2022/07/13 07:25:18;0.00;0.00;0.62;0.00;0.00;0.62;3.03;2.50;;;27.20;33.20;;;;;;2230028;62;20369;-64
2022/07/13 07:28:04;0.00;0.00;0.62;0.00;0.00;0.62;2.30;1.90;;;27.30;33.30;;;;;;2229600;62;20390;-65
2022/07/13 07:30:49;0.00;0.00;0.62;0.00;0.00;0.62;2.53;1.77;;;27.30;31.60;;;;;;2229924;62;20381;-63
2022/07/13 07:33:34;0.00;0.00;0.62;0.00;0.00;0.62;3.10;2.30;;;27.30;31.40;;;;;;2230541;62;20377;-63
2022/07/13 07:36:19;0.00;0.00;0.62;0.00;0.00;0.62;2.47;1.80;;;27.40;31.10;;;;;;2229685;62;20413;-66
2022/07/13 07:39:03;0.00;0.00;0.62;0.00;0.00;0.62;1.97;1.77;;;27.40;30.50;;;;;;2229615;62;20635;-63
2022/07/13 07:41:48;0.00;0.00;0.62;0.00;0.00;0.62;2.63;1.90;;;27.40;30.30;;;;;;2230524;62;20422;-63
2022/07/13 07:44:35;0.00;0.00;0.62;0.00;0.00;0.62;4.00;2.00;;;27.40;30.10;;;;;;2229934;62;20369;-63
2022/07/13 07:47:23;0.00;0.00;0.62;0.00;0.00;0.62;3.77;2.37;;;27.50;30.00;;;;;;2229834;62;20778;-64
2022/07/13 07:50:09;0.00;0.00;0.62;0.00;0.00;0.62;2.70;2.20;;;27.50;30.00;;;;;;2229712;62;20675;-64
2022/07/13 07:52:54;0.00;0.00;0.62;0.00;0.00;0.62;2.33;1.83;;;27.50;30.10;;;;;;2229943;62;20368;-66
2022/07/13 07:55:38;0.00;0.00;0.62;0.00;0.00;0.62;2.00;1.70;;;27.50;29.80;;;;;;2229966;62;20373;-61
2022/07/13 07:58:23;0.00;0.00;0.62;0.00;0.00;0.62;4.47;2.10;;;27.60;29.70;;;;;;2228795;62;20357;-61
2022/07/13 08:01:09;0.00;0.00;0.62;0.00;0.00;0.62;2.17;1.97;;;27.60;29.60;;;;;;2229869;62;20441;-64
2022/07/13 08:03:54;0.00;0.00;0.62;0.00;0.00;0.62;2.87;2.47;;;27.60;29.80;;;;;;2230170;62;20733;-65
2022/07/13 08:06:39;0.00;0.00;0.62;0.00;0.00;0.62;3.17;2.37;;;27.70;29.90;;;;;;2229646;62;20410;-63
2022/07/13 08:09:24;0.00;0.00;0.62;0.00;0.00;0.62;3.77;2.07;;;27.70;30.00;;;;;;2229833;62;20434;-63
2022/07/13 08:12:10;0.00;0.00;0.62;0.00;0.00;0.62;2.27;1.93;;;27.70;30.00;;;;;;2229710;62;20386;-64
2022/07/13 08:14:55;0.00;0.00;0.62;0.00;0.00;0.62;2.70;2.40;;;27.80;30.00;;;;;;2230465;62;20373;-65
2022/07/13 08:17:41;0.00;0.00;0.62;0.00;0.00;0.62;2.97;1.90;;;27.80;30.00;;;;;;2230469;62;20442;-63
2022/07/13 08:20:26;0.00;0.00;0.62;0.00;0.00;0.62;2.27;1.83;;;27.80;30.10;;;;;;2229582;62;20412;-64
2022/07/13 08:26:14;0.00;0.00;0.62;0.00;0.00;0.62;2.33;1.87;;;27.90;30.00;;;;;;2230376;62;20417;-69
2022/07/13 08:29:00;0.00;0.00;0.62;0.00;0.00;0.62;2.30;1.80;;;27.90;29.80;;;;;;2229550;62;20759;-64
2022/07/13 08:31:44;0.00;0.00;0.62;0.00;0.00;0.62;2.87;2.20;;;27.90;29.80;;;;;;2230175;62;20499;-62
2022/07/13 08:40:41;0.00;0.00;0.62;0.00;0.00;0.62;2.60;2.00;;;28.00;29.90;;;;;;2230679;62;20381;-68
2022/07/13 08:43:26;0.00;0.00;0.62;0.00;0.00;0.62;2.13;1.67;;;28.10;29.90;;;;;;2229895;62;20419;-65
2022/07/13 08:46:11;0.00;0.00;0.62;0.00;0.00;0.62;3.03;1.93;;;28.10;30.00;;;;;;2230405;62;20369;-64
2022/07/13 08:48:56;0.00;0.00;0.62;0.00;0.00;0.62;2.00;1.80;;;28.10;30.00;;;;;;2230286;62;20401;-65
2022/07/13 08:51:44;0.00;0.00;0.62;0.00;0.00;0.62;2.70;2.10;;;28.10;30.00;;;;;;2230379;62;20417;-62
2022/07/13 08:54:30;0.00;0.00;0.62;0.00;0.00;0.62;3.27;2.10;;;28.20;29.90;;;;;;2230593;62;20421;-65
2022/07/13 08:57:17;0.00;0.00;0.62;0.00;0.00;0.62;2.00;1.80;;;28.20;29.50;;;;;;2229847;62;20361;-60
2022/07/13 09:00:06;0.00;0.00;0.62;0.00;0.00;0.62;2.63;2.03;;;28.30;29.40;;;;;;2229917;62;20376;-62
2022/07/13 09:02:51;0.00;0.00;0.62;0.00;0.00;0.62;3.30;1.67;;;28.30;29.40;;;;;;2229976;62;20690;-62
2022/07/13 09:05:37;0.00;0.00;0.62;0.00;0.00;0.62;6.07;2.33;;;28.30;29.40;;;;;;2229588;62;20356;-63
2022/07/13 09:08:23;0.00;0.00;0.62;0.00;0.00;0.62;2.73;2.20;;;28.40;29.50;;;;;;2230036;62;20422;-64
2022/07/13 09:11:09;0.00;0.00;0.62;0.00;0.00;0.62;3.17;1.80;;;28.40;29.50;;;;;;2230336;62;20393;-61
2022/07/13 09:13:56;0.00;0.00;0.62;0.00;0.00;0.62;2.40;2.00;;;28.40;29.30;;;;;;2230207;62;20377;-62
2022/07/13 09:16:44;0.00;0.00;0.62;0.00;0.00;0.62;3.33;2.30;;;28.50;29.50;;;;;;2232543;62;20361;-61
2022/07/13 09:19:35;0.00;0.00;0.62;0.00;0.00;0.62;2.67;2.13;;;28.50;29.40;;;;;;2229929;62;20370;-62
2022/07/13 09:22:20;0.00;0.00;0.62;0.00;0.00;0.62;2.50;2.13;;;28.50;29.30;;;;;;2230121;62;20681;-65
2022/07/13 09:25:07;0.00;0.00;0.62;0.00;0.00;0.62;2.47;2.00;;;28.50;29.20;;;;;;2230029;62;20463;-61
2022/07/13 09:27:53;0.00;0.00;0.62;0.00;0.00;0.62;3.40;2.17;;;28.50;29.10;;;;;;2230015;62;20434;-64
2022/07/13 09:30:42;0.00;0.00;0.62;0.00;0.00;0.62;2.03;1.80;;;28.60;29.20;;;;;;2230263;62;20409;-64
2022/07/13 09:33:35;0.00;0.00;0.62;0.00;0.00;0.62;3.80;2.13;;;28.60;29.10;;;;;;2229561;62;20388;-68
2022/07/13 09:36:24;0.00;0.00;0.62;0.00;0.00;0.62;3.00;2.17;;;28.70;29.00;;;;;;2230626;62;20365;-65
2022/07/13 09:39:10;0.00;0.00;0.62;0.00;0.00;0.62;2.67;2.20;;;28.70;29.00;;;;;;2230374;62;20361;-65
2022/07/13 09:41:56;0.00;0.00;0.62;0.00;0.00;0.62;2.20;1.87;;;28.80;28.90;;;;;;2229348;62;20867;-64
2022/07/13 09:48:00;0.00;0.00;0.62;0.00;0.00;0.62;2.60;2.00;;;28.80;28.90;;;;;;2230228;62;20402;-64
2022/07/13 09:50:54;0.00;0.00;0.62;0.00;0.00;0.62;3.30;2.40;;;28.90;28.90;;;;;;2230501;62;20442;-64
2022/07/13 09:53:40;0.00;0.00;0.62;0.00;0.00;0.62;2.33;2.13;;;28.90;28.90;;;;;;2230249;62;20386;-61
2022/07/13 09:56:26;0.00;0.00;0.62;0.00;0.00;0.62;2.10;1.70;;;28.90;28.60;;;;;;2229739;62;20376;-62
2022/07/13 09:59:13;0.00;0.00;0.62;0.00;0.00;0.62;3.93;2.37;;;29.00;28.60;;;;;;2230214;62;20385;-66
2022/07/13 10:02:00;0.00;0.00;0.62;0.00;0.00;0.62;4.77;2.57;;;29.00;28.40;;;;;;2230670;62;20369;-65
2022/07/13 10:04:47;0.00;0.00;0.62;0.00;0.00;0.62;2.50;2.30;;;29.00;28.40;;;;;;2230031;62;20394;-62
2022/07/13 10:07:33;0.00;0.00;0.62;0.00;0.00;0.62;3.80;2.20;;;29.00;28.30;;;;;;2229966;62;20379;-63
2022/07/13 10:10:18;0.00;0.00;0.62;0.00;0.00;0.62;2.83;2.30;;;29.10;28.00;;;;;;2230403;62;20668;-62
2022/07/13 10:13:05;0.00;0.00;0.62;0.00;0.00;0.62;3.07;2.70;;;29.10;27.80;;;;;;2230444;62;20372;-63
2022/07/13 10:15:52;0.00;0.00;0.62;0.00;0.00;0.62;2.57;2.13;;;29.10;27.60;;;;;;2229817;62;20463;-64
2022/07/13 10:18:41;0.00;0.00;0.62;0.00;0.00;0.62;2.70;2.27;;;29.20;27.80;;;;;;2229644;62;20442;-64
2022/07/13 10:21:41;0.00;0.00;0.62;0.00;0.00;0.62;2.30;1.90;;;29.20;27.80;;;;;;2230181;62;20433;-61
2022/07/13 10:24:30;0.00;0.00;0.62;0.00;0.00;0.62;3.00;2.70;;;29.20;28.00;;;;;;2230038;62;20428;-64
2022/07/13 10:27:26;0.00;0.00;0.62;0.00;0.00;0.62;2.60;2.20;;;29.30;27.90;;;;;;2229129;62;20373;-61
2022/07/13 10:30:26;0.00;0.00;0.62;0.00;0.00;0.62;2.40;2.20;;;29.30;27.90;;;;;;2230183;62;20519;-62
2022/07/13 10:33:20;0.00;0.00;0.62;0.00;0.00;0.62;2.23;1.87;;;29.30;27.80;;;;;;2230475;62;20402;-64
2022/07/13 10:36:06;0.00;0.00;0.62;0.00;0.00;0.62;4.03;2.37;;;29.40;27.90;;;;;;2230906;62;20365;-65
2022/07/13 10:39:09;0.00;0.00;0.62;0.00;0.00;0.62;2.57;2.30;;;29.40;28.40;;;;;;2231084;62;20737;-63
2022/07/13 10:42:03;0.00;0.00;0.62;0.00;0.00;0.62;2.30;1.90;;;29.50;27.80;;;;;;2230368;62;21011;-64
2022/07/13 10:44:48;0.00;0.00;0.62;0.00;0.00;0.62;2.97;2.07;;;29.50;27.70;;;;;;2230361;62;20366;-64
2022/07/13 10:47:46;0.00;0.00;0.62;0.00;0.00;0.62;3.53;2.07;;;29.50;27.80;;;;;;2230170;62;20372;-63
2022/07/13 10:50:43;0.00;0.00;0.62;0.00;0.00;0.62;3.30;2.07;;;29.60;27.80;;;;;;2230241;62;20404;-63
2022/07/13 10:54:09;0.00;0.00;0.62;0.00;0.00;0.62;2.83;2.53;;;29.60;27.80;;;;;;2230649;62;20373;-62
2022/07/13 10:57:14;0.00;0.00;0.62;0.00;0.00;0.62;2.83;2.27;;;29.60;27.80;;;;;;2229878;62;20438;-66
2022/07/13 11:00:02;0.00;0.00;0.62;0.00;0.00;0.62;2.83;2.27;;;29.70;27.90;;;;;;2230389;62;20393;-65
2022/07/13 11:02:49;0.00;0.00;0.62;0.00;0.00;0.62;4.37;1.97;;;29.70;28.00;;;;;;2230178;62;20661;-64
2022/07/13 11:05:36;0.00;0.00;0.62;0.00;0.00;0.62;3.57;2.30;;;29.70;28.00;;;;;;2230412;62;20368;-63
2022/07/13 11:08:29;0.00;0.00;0.62;0.00;0.00;0.62;3.97;2.63;;;29.80;28.20;;;;;;2230106;62;20376;-63